createdAt,value
2017-10-26T00:00:28.971Z,28.27
2017-10-26T00:02:55.619Z,28.33
2017-10-26T00:05:23.193Z,24.03
2017-10-26T00:07:49.810Z,24.97
2017-10-26T00:10:16.451Z,28.70
2017-10-26T00:12:45.123Z,25.67
2017-10-26T00:15:12.538Z,28.63
2017-10-26T00:17:39.175Z,30.77
2017-10-26T00:20:05.805Z,28.50
2017-10-26T00:22:32.435Z,30.80
2017-10-26T00:24:59.048Z,29.27
2017-10-26T00:27:25.941Z,28.03
2017-10-26T00:29:52.916Z,27.00
2017-10-26T00:32:19.553Z,30.27
2017-10-26T00:34:46.195Z,31.33
2017-10-26T00:37:12.841Z,30.00
2017-10-26T00:39:39.475Z,31.27
2017-10-26T00:42:06.620Z,32.23
2017-10-26T00:44:33.263Z,31.43
2017-10-26T00:46:59.886Z,30.40
2017-10-26T00:49:26.507Z,32.90
2017-10-26T00:51:53.152Z,29.80
2017-10-26T00:54:19.786Z,33.43
2017-10-26T00:56:46.422Z,29.70
2017-10-26T00:59:13.067Z,28.60
2017-10-26T01:01:39.687Z,34.00
2017-10-26T01:04:06.320Z,32.40
2017-10-26T01:06:32.950Z,30.83
2017-10-26T01:08:59.609Z,28.07
2017-10-26T01:11:26.234Z,29.57
2017-10-26T01:13:52.854Z,34.20
2017-10-26T01:16:19.479Z,32.43
2017-10-26T01:18:46.090Z,33.13
2017-10-26T01:21:12.732Z,34.83
2017-10-26T01:23:39.363Z,35.73
2017-10-26T01:26:05.982Z,31.10
2017-10-26T01:28:32.619Z,33.23
2017-10-26T01:30:59.260Z,33.17
2017-10-26T01:33:25.888Z,32.63
2017-10-26T01:35:52.525Z,34.80
2017-10-26T01:38:19.147Z,34.00
2017-10-26T01:40:45.759Z,35.87
2017-10-26T01:43:12.372Z,35.37
2017-10-26T01:45:39.026Z,36.40
2017-10-26T01:48:05.648Z,37.47
2017-10-26T01:50:32.263Z,38.30
2017-10-26T01:52:58.903Z,38.40
2017-10-26T01:55:25.523Z,34.20
2017-10-26T01:57:52.167Z,36.97
2017-10-26T02:00:18.827Z,36.20
2017-10-26T02:02:45.458Z,34.23
2017-10-26T02:05:12.079Z,34.77
2017-10-26T02:07:38.696Z,38.20
2017-10-26T02:10:05.329Z,37.20
2017-10-26T02:12:31.972Z,37.87
2017-10-26T02:14:58.592Z,37.90
2017-10-26T02:17:25.215Z,35.27
2017-10-26T02:19:51.842Z,37.43
2017-10-26T02:22:18.467Z,33.27
2017-10-26T02:24:45.101Z,36.17
2017-10-26T02:27:11.716Z,36.30
2017-10-26T02:29:44.257Z,37.47
2017-10-26T02:32:10.892Z,34.50
2017-10-26T02:34:37.516Z,34.30
2017-10-26T02:37:04.158Z,36.03
2017-10-26T02:39:30.781Z,34.07
2017-10-26T02:41:57.418Z,33.50
2017-10-26T02:44:24.039Z,35.70
2017-10-26T02:46:50.662Z,35.00
2017-10-26T02:49:17.295Z,36.67
2017-10-26T02:51:43.902Z,30.67
2017-10-26T02:54:10.547Z,30.60
2017-10-26T02:56:37.154Z,33.40
2017-10-26T02:59:03.803Z,32.13
2017-10-26T03:01:30.477Z,34.30
2017-10-26T03:03:57.081Z,32.50
2017-10-26T03:06:23.738Z,32.87
2017-10-26T03:08:50.363Z,35.37
2017-10-26T03:11:17.053Z,32.50
2017-10-26T03:13:43.665Z,31.47
2017-10-26T03:16:10.289Z,32.40
2017-10-26T03:18:36.927Z,33.57
2017-10-26T03:21:03.600Z,37.00
2017-10-26T03:23:31.052Z,35.90
2017-10-26T03:25:57.690Z,34.40
2017-10-26T03:28:24.319Z,31.40
2017-10-26T03:30:50.973Z,33.77
2017-10-26T03:33:17.616Z,35.70
2017-10-26T03:35:44.231Z,33.60
2017-10-26T03:38:11.511Z,39.13
2017-10-26T03:40:38.147Z,38.20
2017-10-26T03:43:04.791Z,37.17
2017-10-26T03:45:31.418Z,34.80
2017-10-26T03:47:58.070Z,34.10
2017-10-26T03:50:24.698Z,34.37
2017-10-26T03:52:51.312Z,36.23
2017-10-26T03:55:17.958Z,35.93
2017-10-26T03:57:44.572Z,36.80
2017-10-26T04:00:11.225Z,30.73
2017-10-26T04:02:38.585Z,30.37
2017-10-26T04:05:05.182Z,35.03
2017-10-26T04:07:31.825Z,36.10
2017-10-26T04:09:58.443Z,37.40
2017-10-26T04:12:25.079Z,35.03
2017-10-26T04:14:51.694Z,31.60
2017-10-26T04:17:18.338Z,30.33
2017-10-26T04:19:44.986Z,32.10
2017-10-26T04:22:11.610Z,30.10
2017-10-26T04:24:38.253Z,33.87
2017-10-26T04:27:04.906Z,34.60
2017-10-26T04:29:32.382Z,29.20
2017-10-26T04:31:59.026Z,28.70
2017-10-26T04:34:25.650Z,29.57
2017-10-26T04:36:52.287Z,31.27
2017-10-26T04:39:18.903Z,24.20
2017-10-26T04:41:45.555Z,26.63
2017-10-26T04:44:12.206Z,27.10
2017-10-26T04:46:38.838Z,27.00
2017-10-26T04:49:05.479Z,32.37
2017-10-26T04:51:32.090Z,29.40
2017-10-26T04:53:58.722Z,30.50
2017-10-26T04:56:25.352Z,29.03
2017-10-26T04:58:51.983Z,28.07
2017-10-26T05:01:18.626Z,27.63
2017-10-26T05:03:45.269Z,26.03
2017-10-26T05:06:11.898Z,27.87
2017-10-26T05:08:38.515Z,28.13
2017-10-26T05:11:05.173Z,29.63
2017-10-26T05:13:31.818Z,30.73
2017-10-26T05:15:59.315Z,30.83
2017-10-26T05:18:25.969Z,30.37
2017-10-26T05:20:52.591Z,32.60
2017-10-26T05:23:19.212Z,31.60
2017-10-26T05:25:45.830Z,28.60
2017-10-26T05:28:12.483Z,29.20
2017-10-26T05:30:39.102Z,30.17
2017-10-26T05:33:05.731Z,30.17
2017-10-26T05:35:32.362Z,33.67
2017-10-26T05:37:59.014Z,30.80
2017-10-26T05:40:25.670Z,28.20
2017-10-26T05:42:52.288Z,29.33
2017-10-26T05:45:18.907Z,30.23
2017-10-26T05:47:45.541Z,29.13
2017-10-26T05:50:12.185Z,26.23
2017-10-26T05:52:38.812Z,27.47
2017-10-26T05:55:05.471Z,27.00
2017-10-26T05:57:32.103Z,27.63
2017-10-26T05:59:58.734Z,31.50
2017-10-26T06:02:25.350Z,29.37
2017-10-26T06:04:51.990Z,27.27
2017-10-26T06:07:18.598Z,29.50
2017-10-26T06:09:45.232Z,27.40
2017-10-26T06:12:11.847Z,27.97
2017-10-26T06:14:38.487Z,25.20
2017-10-26T06:17:05.098Z,28.03
2017-10-26T06:19:31.710Z,25.17
2017-10-26T06:21:58.364Z,28.10
2017-10-26T06:24:24.992Z,27.70
2017-10-26T06:26:51.629Z,27.27
2017-10-26T06:29:18.284Z,28.00
2017-10-26T06:31:44.934Z,28.63
2017-10-26T06:34:11.587Z,30.73
2017-10-26T06:36:38.247Z,25.83
2017-10-26T06:39:04.908Z,26.77
2017-10-26T06:41:31.535Z,25.80
2017-10-26T06:43:58.172Z,27.10
2017-10-26T06:46:24.794Z,27.93
2017-10-26T06:48:51.428Z,25.40
2017-10-26T06:51:18.054Z,26.00
2017-10-26T06:53:44.671Z,25.80
2017-10-26T06:56:11.319Z,25.03
2017-10-26T06:58:37.944Z,26.00
2017-10-26T07:01:04.558Z,25.53
2017-10-26T07:03:31.217Z,24.93
2017-10-26T07:05:58.663Z,25.97
2017-10-26T07:08:25.265Z,25.40
2017-10-26T07:10:51.904Z,27.57
2017-10-26T07:13:18.515Z,24.67
2017-10-26T07:15:45.140Z,27.13
2017-10-26T07:18:11.772Z,23.27
2017-10-26T07:20:38.409Z,26.10
2017-10-26T07:23:05.046Z,25.07
2017-10-26T07:25:31.676Z,26.20
2017-10-26T07:27:58.313Z,25.30
2017-10-26T07:30:24.914Z,25.03
2017-10-26T07:32:51.555Z,28.13
2017-10-26T07:35:18.200Z,25.47
2017-10-26T07:37:45.558Z,24.57
2017-10-26T07:40:12.229Z,25.90
2017-10-26T07:42:38.847Z,23.60
2017-10-26T07:45:06.123Z,23.20
2017-10-26T07:47:33.461Z,23.40
2017-10-26T07:50:00.070Z,24.00
2017-10-26T07:52:28.686Z,23.47
2017-10-26T07:54:55.314Z,22.40
2017-10-26T07:57:23.162Z,23.87
2017-10-26T07:59:49.801Z,21.87
2017-10-26T08:02:16.406Z,21.27
2017-10-26T08:04:43.049Z,22.37
2017-10-26T08:07:09.679Z,21.60
2017-10-26T08:09:36.298Z,21.10
2017-10-26T08:12:02.951Z,24.57
2017-10-26T08:14:29.575Z,20.97
2017-10-26T08:16:56.235Z,21.10
2017-10-26T08:19:22.852Z,21.20
2017-10-26T08:21:49.474Z,20.80
2017-10-26T08:24:16.127Z,21.20
2017-10-26T08:26:42.771Z,20.33
2017-10-26T08:29:09.392Z,20.27
2017-10-26T08:31:36.765Z,23.80
2017-10-26T08:34:03.378Z,20.33
2017-10-26T08:36:30.108Z,19.30
2017-10-26T08:38:56.724Z,20.87
2017-10-26T08:41:25.416Z,19.93
2017-10-26T08:43:52.040Z,19.00
2017-10-26T08:46:18.662Z,19.47
2017-10-26T08:48:45.298Z,16.73
2017-10-26T08:51:11.951Z,17.20
2017-10-26T08:53:38.587Z,17.90
2017-10-26T08:56:06.223Z,18.17
2017-10-26T08:58:32.843Z,19.63
2017-10-26T09:00:59.488Z,19.60
2017-10-26T09:03:26.162Z,17.80
2017-10-26T09:05:52.774Z,16.90
2017-10-26T09:08:19.414Z,18.20
2017-10-26T09:10:46.034Z,17.23
2017-10-26T09:13:12.686Z,17.23
2017-10-26T09:15:39.313Z,15.57
2017-10-26T09:18:05.958Z,18.33
2017-10-26T09:20:32.588Z,18.00
2017-10-26T09:22:59.223Z,17.47
2017-10-26T09:25:25.866Z,18.07
2017-10-26T09:27:52.479Z,16.83
2017-10-26T09:30:19.341Z,17.77
2017-10-26T09:32:45.966Z,17.90
2017-10-26T09:35:12.578Z,19.00
2017-10-26T09:37:39.211Z,19.03
2017-10-26T09:40:05.867Z,17.10
2017-10-26T09:42:32.553Z,15.30
2017-10-26T09:44:59.171Z,15.27
2017-10-26T09:47:25.806Z,16.07
2017-10-26T09:49:52.464Z,15.70
2017-10-26T09:52:19.127Z,15.57
2017-10-26T09:54:45.748Z,15.53
2017-10-26T09:57:12.399Z,17.23
2017-10-26T09:59:39.029Z,16.30
2017-10-26T10:02:05.652Z,15.57
2017-10-26T10:04:32.297Z,16.57
2017-10-26T10:06:58.926Z,15.40
2017-10-26T10:09:25.576Z,14.77
2017-10-26T10:11:52.219Z,14.37
2017-10-26T10:14:18.859Z,13.70
2017-10-26T10:16:45.514Z,15.37
2017-10-26T10:19:12.482Z,15.30
2017-10-26T10:21:39.109Z,15.03
2017-10-26T10:24:05.722Z,15.73
2017-10-26T10:26:32.907Z,12.73
2017-10-26T10:28:59.530Z,12.93
2017-10-26T10:31:26.178Z,13.17
2017-10-26T10:33:52.800Z,13.27
2017-10-26T10:36:19.487Z,12.70
2017-10-26T10:38:46.137Z,12.97
2017-10-26T10:41:12.744Z,12.73
2017-10-26T10:43:39.386Z,11.63
2017-10-26T10:46:06.057Z,12.17
2017-10-26T10:48:32.707Z,11.67
2017-10-26T10:50:59.326Z,11.77
2017-10-26T10:53:25.966Z,9.43
2017-10-26T10:55:52.599Z,12.13
2017-10-26T10:58:19.231Z,10.53
2017-10-26T11:00:45.880Z,10.60
2017-10-26T11:03:12.504Z,11.33
2017-10-26T11:05:39.105Z,10.93
2017-10-26T11:08:05.772Z,11.50
2017-10-26T11:10:32.399Z,9.83
2017-10-26T11:12:59.035Z,9.73
2017-10-26T11:15:25.665Z,9.10
2017-10-26T11:17:52.286Z,9.67
2017-10-26T11:20:19.072Z,10.37
2017-10-26T11:22:45.703Z,9.77
2017-10-26T11:25:12.359Z,10.40
2017-10-26T11:27:38.979Z,8.40
2017-10-26T11:30:05.599Z,10.37
2017-10-26T11:32:32.230Z,9.70
2017-10-26T11:34:58.859Z,8.13
2017-10-26T11:37:25.509Z,9.00
2017-10-26T11:39:52.119Z,7.67
2017-10-26T11:42:18.734Z,7.77
2017-10-26T11:44:45.355Z,7.93
2017-10-26T11:47:11.966Z,6.80
2017-10-26T11:49:38.935Z,7.30
2017-10-26T11:52:05.547Z,8.33
2017-10-26T11:54:32.165Z,7.03
2017-10-26T11:56:58.799Z,7.17
2017-10-26T11:59:25.416Z,6.90
2017-10-26T12:01:52.126Z,7.40
2017-10-26T12:04:18.744Z,7.27
2017-10-26T12:06:45.371Z,8.20
2017-10-26T12:09:11.998Z,7.23
2017-10-26T12:11:38.601Z,7.80
2017-10-26T12:14:05.231Z,6.53
2017-10-26T12:16:31.914Z,7.97
2017-10-26T12:18:58.547Z,8.47
2017-10-26T12:21:25.151Z,9.43
2017-10-26T12:23:51.836Z,7.87
2017-10-26T12:26:18.451Z,10.00
2017-10-26T12:28:45.063Z,7.67
2017-10-26T12:31:11.779Z,10.23
2017-10-26T12:33:38.408Z,11.47
2017-10-26T12:36:05.903Z,9.60
2017-10-26T12:38:32.514Z,8.33
2017-10-26T12:40:59.131Z,9.80
2017-10-26T12:43:25.785Z,10.47
2017-10-26T12:45:52.419Z,10.40
2017-10-26T12:48:19.045Z,11.10
2017-10-26T12:50:45.705Z,12.13
2017-10-26T12:53:12.352Z,11.50
2017-10-26T12:55:38.966Z,13.50
2017-10-26T12:58:05.586Z,12.00
2017-10-26T13:00:32.250Z,12.80
2017-10-26T13:02:58.900Z,11.67
2017-10-26T13:05:25.529Z,12.23
2017-10-26T13:07:52.194Z,13.37
2017-10-26T13:10:19.439Z,11.70
2017-10-26T13:12:46.077Z,11.10
2017-10-26T13:15:12.702Z,11.53
2017-10-26T13:17:39.347Z,10.00
2017-10-26T13:20:05.975Z,9.43
2017-10-26T13:22:32.587Z,10.23
2017-10-26T13:24:59.201Z,10.70
2017-10-26T13:27:25.840Z,10.20
2017-10-26T13:29:52.472Z,10.30
2017-10-26T13:32:19.144Z,11.60
2017-10-26T13:34:45.749Z,10.30
2017-10-26T13:37:12.380Z,9.87
2017-10-26T13:39:39.010Z,10.57
2017-10-26T13:42:05.625Z,12.07
2017-10-26T13:44:32.328Z,11.60
2017-10-26T13:46:58.931Z,11.93
2017-10-26T13:49:25.559Z,11.03
2017-10-26T13:51:52.226Z,11.67
2017-10-26T13:54:18.890Z,11.20
2017-10-26T13:56:45.539Z,12.17
2017-10-26T13:59:12.178Z,11.40
2017-10-26T14:01:38.826Z,12.40
2017-10-26T14:04:05.444Z,11.70
2017-10-26T14:06:32.081Z,12.83
2017-10-26T14:08:58.700Z,13.27
2017-10-26T14:11:25.355Z,14.33
2017-10-26T14:13:52.001Z,14.00
2017-10-26T14:16:18.618Z,13.80
2017-10-26T14:18:45.261Z,13.90
2017-10-26T14:21:11.880Z,12.40
2017-10-26T14:23:38.526Z,13.20
2017-10-26T14:26:05.159Z,12.77
2017-10-26T14:28:31.788Z,11.80
2017-10-26T14:30:58.446Z,13.53
2017-10-26T14:33:25.099Z,13.00
2017-10-26T14:35:51.762Z,12.73
2017-10-26T14:38:18.403Z,13.53
2017-10-26T14:40:45.079Z,13.60
2017-10-26T14:43:11.719Z,13.83
2017-10-26T14:45:38.357Z,12.77
2017-10-26T14:48:05.008Z,13.23
2017-10-26T14:50:31.636Z,13.47
2017-10-26T14:52:58.276Z,14.40
2017-10-26T14:55:24.896Z,14.37
2017-10-26T14:57:51.566Z,13.90
2017-10-26T15:00:18.599Z,12.33
2017-10-26T15:02:45.232Z,13.03
2017-10-26T15:05:11.882Z,12.50
2017-10-26T15:07:38.520Z,14.40
2017-10-26T15:10:05.151Z,12.83
2017-10-26T15:12:31.832Z,14.53
2017-10-26T15:14:58.628Z,15.17
2017-10-26T15:17:25.288Z,15.17
2017-10-26T15:19:51.944Z,12.77
2017-10-26T15:22:18.586Z,11.07
2017-10-26T15:24:45.229Z,12.07
2017-10-26T15:27:11.837Z,11.40
2017-10-26T15:29:38.484Z,11.87
2017-10-26T15:32:05.119Z,11.20
2017-10-26T15:34:31.749Z,11.90
2017-10-26T15:36:58.408Z,11.80
2017-10-26T15:39:25.052Z,11.97
2017-10-26T15:41:51.682Z,10.77
2017-10-26T15:44:18.323Z,11.50
2017-10-26T15:46:44.962Z,11.70
2017-10-26T15:49:11.602Z,12.13
2017-10-26T15:51:38.231Z,12.33
2017-10-26T15:54:04.869Z,11.63
2017-10-26T15:56:31.487Z,11.50
2017-10-26T15:58:58.131Z,10.80
2017-10-26T16:01:24.763Z,11.23
2017-10-26T16:03:51.410Z,12.17
2017-10-26T16:06:18.024Z,11.67
2017-10-26T16:08:44.647Z,12.30
2017-10-26T16:11:11.303Z,12.83
2017-10-26T16:13:37.928Z,12.13
2017-10-26T16:16:04.549Z,13.50
2017-10-26T16:18:31.208Z,12.77
2017-10-26T16:20:57.840Z,12.67
2017-10-26T16:23:24.492Z,11.07
2017-10-26T16:25:51.119Z,11.63
2017-10-26T16:28:17.762Z,11.00
2017-10-26T16:30:44.415Z,10.90
2017-10-26T16:33:11.055Z,11.60
2017-10-26T16:35:37.706Z,9.80
2017-10-26T16:38:04.335Z,12.47
2017-10-26T16:40:31.524Z,12.80
2017-10-26T16:42:58.222Z,11.70
2017-10-26T16:45:24.831Z,13.30
2017-10-26T16:47:51.447Z,14.37
2017-10-26T16:50:18.088Z,14.47
2017-10-26T16:52:44.735Z,14.07
2017-10-26T16:55:11.383Z,16.90
2017-10-26T16:57:38.000Z,16.27
2017-10-26T17:00:04.656Z,18.60
2017-10-26T17:02:31.294Z,19.87
2017-10-26T17:04:57.939Z,20.73
2017-10-26T17:07:24.575Z,21.53
2017-10-26T17:09:51.222Z,22.00
2017-10-26T17:12:17.841Z,24.30
2017-10-26T17:14:44.497Z,23.97
2017-10-26T17:17:11.103Z,23.13
2017-10-26T17:19:37.762Z,26.70
2017-10-26T17:22:04.414Z,26.87
2017-10-26T17:24:31.055Z,23.60
2017-10-26T17:26:57.726Z,23.77
2017-10-26T17:29:24.376Z,24.93
2017-10-26T17:31:51.055Z,24.10
2017-10-26T17:34:17.707Z,23.27
2017-10-26T17:36:44.352Z,23.40
2017-10-26T17:39:10.975Z,21.17
2017-10-26T17:41:37.628Z,21.50
2017-10-26T17:44:04.244Z,21.47
2017-10-26T17:46:30.910Z,19.57
2017-10-26T17:48:57.535Z,17.87
2017-10-26T17:51:24.164Z,21.60
2017-10-26T17:53:50.828Z,20.60
2017-10-26T17:56:17.458Z,20.03
2017-10-26T17:58:44.098Z,22.40
2017-10-26T18:01:10.770Z,22.90
2017-10-26T18:03:38.361Z,25.63
2017-10-26T18:06:05.010Z,24.40
2017-10-26T18:08:31.657Z,22.20
2017-10-26T18:10:58.278Z,21.50
2017-10-26T18:13:25.266Z,19.50
2017-10-26T18:15:51.892Z,19.70
2017-10-26T18:18:18.521Z,30.40
2017-10-26T18:20:45.180Z,24.40
2017-10-26T18:23:11.837Z,33.47
2017-10-26T18:25:38.474Z,27.30
2017-10-26T18:28:05.091Z,26.37
2017-10-26T18:30:31.759Z,25.43
2017-10-26T18:32:58.369Z,23.80
2017-10-26T18:35:24.979Z,25.47
2017-10-26T18:37:51.639Z,24.67
2017-10-26T18:40:18.413Z,24.33
2017-10-26T18:42:45.078Z,22.63
2017-10-26T18:45:11.698Z,23.90
2017-10-26T18:47:38.365Z,25.70
2017-10-26T18:50:05.230Z,24.50
2017-10-26T18:52:31.926Z,26.00
2017-10-26T18:54:58.563Z,25.77
2017-10-26T18:57:25.217Z,26.57
2017-10-26T18:59:51.849Z,27.40
2017-10-26T19:02:18.481Z,26.53
2017-10-26T19:04:45.130Z,26.80
2017-10-26T19:07:12.527Z,24.53
2017-10-26T19:09:39.197Z,25.47
2017-10-26T19:12:06.776Z,29.00
2017-10-26T19:14:34.294Z,31.27
2017-10-26T19:17:00.940Z,32.03
2017-10-26T19:19:27.546Z,31.20
2017-10-26T19:21:54.218Z,30.00
2017-10-26T19:24:21.104Z,29.13
2017-10-26T19:26:47.774Z,27.57
2017-10-26T19:29:14.434Z,30.20
2017-10-26T19:31:41.060Z,31.83
2017-10-26T19:34:07.689Z,31.70
2017-10-26T19:36:34.332Z,33.80
2017-10-26T19:39:00.972Z,33.20
2017-10-26T19:41:27.613Z,35.10
2017-10-26T19:43:54.256Z,36.53
2017-10-26T19:46:20.908Z,43.30
2017-10-26T19:48:47.558Z,44.63
2017-10-26T19:51:14.182Z,44.23
2017-10-26T19:53:40.828Z,36.47
2017-10-26T19:56:07.447Z,34.17
2017-10-26T19:58:34.078Z,31.40
2017-10-26T20:01:00.702Z,30.63
2017-10-26T20:03:27.363Z,30.20
2017-10-26T20:05:53.995Z,31.50
2017-10-26T20:08:21.414Z,27.30
2017-10-26T20:10:48.387Z,27.77
2017-10-26T20:13:15.027Z,24.43
2017-10-26T20:15:41.663Z,26.17
2017-10-26T20:18:08.348Z,24.13
2017-10-26T20:20:34.984Z,25.00
2017-10-26T20:23:01.652Z,24.37
2017-10-26T20:25:28.272Z,26.57
2017-10-26T20:27:54.911Z,26.20
2017-10-26T20:30:21.565Z,26.20
2017-10-26T20:32:48.192Z,28.43
2017-10-26T20:35:14.871Z,24.37
2017-10-26T20:37:41.507Z,22.10
2017-10-26T20:40:08.129Z,24.30
2017-10-26T20:42:34.828Z,23.50
2017-10-26T20:45:01.471Z,21.43
2017-10-26T20:47:28.121Z,20.27
2017-10-26T20:50:00.573Z,19.87
2017-10-26T20:52:33.415Z,19.40
2017-10-26T20:55:05.776Z,19.87
2017-10-26T20:57:38.101Z,17.97
2017-10-26T21:00:10.455Z,19.40
2017-10-26T21:02:42.752Z,17.87
2017-10-26T21:05:15.141Z,19.50
2017-10-26T21:07:47.379Z,19.43
2017-10-26T21:10:19.778Z,18.83
2017-10-26T21:12:52.304Z,16.43
2017-10-26T21:15:18.917Z,14.90
2017-10-26T21:17:45.563Z,15.50
2017-10-26T21:20:12.172Z,15.50
2017-10-26T21:22:38.831Z,13.63
2017-10-26T21:25:05.458Z,13.93
2017-10-26T21:27:32.117Z,11.07
2017-10-26T21:29:58.747Z,13.03
2017-10-26T21:32:25.364Z,12.90
2017-10-26T21:34:51.999Z,14.10
2017-10-26T21:37:18.637Z,12.90
2017-10-26T21:39:45.255Z,16.77
2017-10-26T21:42:11.895Z,14.43
2017-10-26T21:44:38.541Z,14.67
2017-10-26T21:47:05.164Z,13.77
2017-10-26T21:49:32.691Z,15.17
2017-10-26T21:51:59.322Z,16.70
2017-10-26T21:54:25.959Z,13.37
2017-10-26T21:56:52.616Z,14.33
2017-10-26T21:59:19.237Z,11.10
2017-10-26T22:01:45.896Z,14.30
2017-10-26T22:04:12.536Z,16.53
2017-10-26T22:06:39.173Z,17.80
2017-10-26T22:09:05.821Z,16.00
2017-10-26T22:11:32.437Z,23.57
2017-10-26T22:13:59.070Z,26.80
2017-10-26T22:16:25.704Z,28.10
2017-10-26T22:18:52.355Z,18.60
2017-10-26T22:21:19.008Z,13.50
2017-10-26T22:23:45.636Z,12.50
2017-10-26T22:26:13.263Z,11.90
2017-10-26T22:28:39.901Z,20.63
2017-10-26T22:33:40.564Z,17.30
2017-10-26T22:36:07.190Z,13.97
2017-10-26T22:38:33.813Z,17.00
2017-10-26T22:41:00.464Z,17.30
2017-10-26T22:43:27.078Z,16.40
2017-10-26T22:45:53.724Z,11.83
2017-10-26T22:48:20.368Z,12.67
2017-10-26T22:50:46.984Z,14.00
2017-10-26T22:53:13.616Z,17.13
2017-10-26T22:55:40.225Z,18.07
2017-10-26T22:58:06.893Z,20.20
2017-10-26T23:00:33.523Z,22.67
2017-10-26T23:03:00.158Z,23.67
2017-10-26T23:05:26.811Z,33.57
2017-10-26T23:07:53.439Z,32.73
2017-10-26T23:10:20.079Z,32.17
2017-10-26T23:12:46.700Z,27.23
2017-10-26T23:15:13.355Z,22.70
2017-10-26T23:17:39.969Z,22.20
2017-10-26T23:20:06.627Z,22.93
2017-10-26T23:22:33.278Z,17.90
2017-10-26T23:24:59.894Z,18.63
2017-10-26T23:27:26.527Z,19.17
2017-10-26T23:29:53.241Z,19.77
2017-10-26T23:32:19.875Z,20.00
2017-10-26T23:34:46.517Z,19.57
2017-10-26T23:37:13.134Z,20.23
2017-10-26T23:39:39.778Z,20.63
2017-10-26T23:42:06.421Z,20.70
2017-10-26T23:44:33.054Z,20.07
2017-10-26T23:46:59.719Z,17.87
2017-10-26T23:49:26.351Z,17.10
2017-10-26T23:51:52.964Z,18.20
2017-10-26T23:54:19.624Z,19.63
2017-10-26T23:56:46.256Z,17.37
2017-10-26T23:59:12.866Z,17.60
